Mia-s — V2EI7 — position and weather

sailwx.info

Track history (hours):
 
Tides and Currents Weather Stations Pressure Air Temp Water Temp Dewpoint Dewpoint Depression Visibility Wind Speed Wind Dir Waves Ship Positions

Mia-s

Last reported at 2015-Aug-02 18:31 UTC. Time now 2015-Aug-02 20:25 UTC.
Position N 43°37' W 005°42'.

Length 190 m; draft 12.3 m.

Type: Cargo ship. MMSI: 305442000.

Date/timePositionNaut miles runAvg speedWind from/ knotsBaromVisibWave heightAir tempDewpointWater temp
2015-Aug-02 18:31N 43°37' W 005°42'0 0.0
2015-Aug-02 16:25N 43°37' W 005°42'1 1.5
2015-Aug-02 15:30N 43°36' W 005°41'2 1.6
2015-Aug-02 14:30N 43°35' W 005°41'0 0.0
2015-Aug-02 13:06N 43°35' W 005°41'0 0.0
2015-Aug-02 12:18N 43°35' W 005°41'0 0.0
2015-Aug-02 11:18N 43°35' W 005°41'0 0.0
2015-Aug-02 10:18N 43°35' W 005°41'0 0.0
2015-Aug-02 09:30N 43°35' W 005°41'0 0.0
2015-Aug-02 08:18N 43°35' W 005°41'0 0.0
2015-Aug-02 07:18N 43°35' W 005°41'0 0.0
2015-Aug-02 06:30N 43°35' W 005°41'0 0.0
2015-Aug-02 05:12N 43°35' W 005°41'0 0.0
2015-Aug-02 04:30N 43°35' W 005°41'0 0.0
2015-Aug-02 03:18N 43°35' W 005°41'0 0.0
2015-Aug-02 02:12N 43°35' W 005°41'0 0.0
2015-Aug-02 01:30N 43°35' W 005°41'0 0.0
2015-Aug-01 19:30N 43°35' W 005°41'0 0.0
2015-Aug-01 18:18N 43°35' W 005°41'0 0.0
2015-Aug-01 17:30N 43°35' W 005°41'0 0.0
2015-Aug-01 15:18N 43°35' W 005°41'0 0.0
2015-Aug-01 14:30N 43°35' W 005°41'0 0.0
2015-Aug-01 13:18N 43°35' W 005°41'0 0.0
2015-Aug-01 12:18N 43°35' W 005°41'0 0.0
2015-Aug-01 11:30N 43°35' W 005°41'0 0.0
2015-Aug-01 10:24N 43°35' W 005°41'0 0.0
2015-Aug-01 08:18N 43°35' W 005°41'0 0.0
2015-Aug-01 07:30N 43°35' W 005°41'0 0.0
2015-Aug-01 06:30N 43°35' W 005°41'0 0.0
2015-Aug-01 05:30N 43°35' W 005°41'0 0.0
2015-Aug-01 04:18N 43°35' W 005°41'0 0.0
2015-Aug-01 03:30N 43°35' W 005°41'0 0.0
2015-Aug-01 02:24N 43°35' W 005°41'0 0.0
2015-Aug-01 01:18N 43°35' W 005°41'0 0.0
2015-Aug-01 00:24N 43°35' W 005°41'0 0.0
2015-Jul-31 18:12N 43°35' W 005°41'0 0.0
2015-Jul-31 16:18N 43°35' W 005°41'0 0.0
2015-Jul-31 15:30N 43°35' W 005°41'0 0.0
2015-Jul-31 14:30N 43°35' W 005°41'0 0.0
2015-Jul-31 13:30N 43°35' W 005°41'0 0.0
2015-Jul-31 12:24N 43°35' W 005°41'0 0.0
2015-Jul-31 09:30N 43°35' W 005°41'0 0.0
2015-Jul-31 08:24N 43°35' W 005°41'0 0.0
2015-Jul-31 06:12N 43°35' W 005°41'0 0.0
2015-Jul-31 04:30N 43°35' W 005°41'0 0.0
2015-Jul-31 03:30N 43°35' W 005°41'0 0.0
2015-Jul-30 22:33N 43°35' W 005°41'5 5.4
2015-Jul-30 21:33N 43°39' W 005°37'1010.2
2015-Jul-30 20:33N 43°46' W 005°26'9 8.4
2015-Jul-30 19:29N 43°52' W 005°17'2 1.8
2015-Jul-30 18:29N 43°53' W 005°15'1 1.4
2015-Jul-30 17:33N 43°53' W 005°13'2 1.5
2015-Jul-30 16:30N 43°54' W 005°11'4 0.6
2015-Jul-30 09:12N 43°57' W 005°07'912.2
2015-Jul-30 08:30N 43°50' W 005°14'3 3.4
2015-Jul-30 07:32N 43°47' W 005°17'2 1.5
2015-Jul-30 06:31N 43°48' W 005°16'1 1.4
2015-Jul-30 05:33N 43°50' W 005°15'1 1.2
2015-Jul-30 04:33N 43°51' W 005°15'1 1.2
2015-Jul-30 03:33N 43°52' W 005°13'1 1.3
2015-Jul-30 02:33N 43°52' W 005°12'1 1.2
2015-Jul-30 01:33N 43°53' W 005°11'1 1.3
2015-Jul-30 00:32N 43°54' W 005°09'1 1.3
2015-Jul-29 23:31N 43°55' W 005°09'1 1.2
2015-Jul-29 22:32N 43°56' W 005°08'1 1.2
2015-Jul-29 21:25N 43°57' W 005°07'15 1.2
2015-Jul-29 08:33N 43°45' W 004°56'2 1.5
2015-Jul-29 07:29N 43°46' W 004°57'1 1.6
2015-Jul-29 06:33N 43°48' W 004°57'2 1.4
2015-Jul-29 05:27N 43°49' W 004°58'1 1.0
2015-Jul-29 04:32N 43°50' W 004°58'1 1.1
2015-Jul-29 03:29N 43°51' W 004°57'1 1.2
2015-Jul-29 02:33N 43°52' W 004°57'8 1.8
2015-Jul-28 22:08N 43°60' W 004°60'9 0.7
2015-Jul-28 09:23N 44°05' W 005°09'22 4.4
2015-Jul-28 04:23N 43°49' W 004°48'3 1.4
2015-Jul-28 02:20N 43°52' W 004°50'2 1.2
2015-Jul-28 01:06N 43°54' W 004°50'22 0.7
2015-Jul-26 19:33N 43°50' W 005°20'3 2.6
2015-Jul-26 18:31N 43°52' W 005°21'3 2.7
2015-Jul-26 17:30N 43°55' W 005°23'21 1.8
2015-Jul-26 06:09N 44°10' W 005°42'0 0.6
2015-Jul-26 05:33N 44°10' W 005°42'1 0.6
2015-Jul-26 04:31N 44°10' W 005°43'2 0.6
2015-Jul-26 01:29N 44°10' W 005°46'1 0.5
2015-Jul-26 00:14N 44°10' W 005°46'1 0.5
2015-Jul-25 22:29N 44°10' W 005°47'6 0.2
2015-Jul-24 07:33N 44°05' W 005°42'0 0.3
2015-Jul-24 06:29N 44°05' W 005°43'3 0.6
2015-Jul-24 01:08N 44°06' W 005°47'2 0.3
2015-Jul-23 19:25N 44°05' W 005°48'  
Track history (hours):
 
Tides and Currents Weather Stations Pressure Air Temp Water Temp Dewpoint Dewpoint Depression Visibility Wind Speed Wind Dir Waves Ship Positions

Mia-s

Last reported at 2015-Aug-02 18:31 UTC. Time now 2015-Aug-02 20:25 UTC.
Position N 43°37' W 005°42'.

Length 190 m; draft 12.3 m.

Type: Cargo ship. MMSI: 305442000.

Date/timePositionNaut miles runAvg speedWind from/ knotsBaromVisibWave heightAir tempDewpointWater temp
2015-Aug-02 18:31N 43°37' W 005°42'0 0.0
2015-Aug-02 16:25N 43°37' W 005°42'1 1.5
2015-Aug-02 15:30N 43°36' W 005°41'2 1.6
2015-Aug-02 14:30N 43°35' W 005°41'0 0.0
2015-Aug-02 13:06N 43°35' W 005°41'0 0.0
2015-Aug-02 12:18N 43°35' W 005°41'0 0.0
2015-Aug-02 11:18N 43°35' W 005°41'0 0.0
2015-Aug-02 10:18N 43°35' W 005°41'0 0.0
2015-Aug-02 09:30N 43°35' W 005°41'0 0.0
2015-Aug-02 08:18N 43°35' W 005°41'0 0.0
2015-Aug-02 07:18N 43°35' W 005°41'0 0.0
2015-Aug-02 06:30N 43°35' W 005°41'0 0.0
2015-Aug-02 05:12N 43°35' W 005°41'0 0.0
2015-Aug-02 04:30N 43°35' W 005°41'0 0.0
2015-Aug-02 03:18N 43°35' W 005°41'0 0.0
2015-Aug-02 02:12N 43°35' W 005°41'0 0.0
2015-Aug-02 01:30N 43°35' W 005°41'0 0.0
2015-Aug-01 19:30N 43°35' W 005°41'0 0.0
2015-Aug-01 18:18N 43°35' W 005°41'0 0.0
2015-Aug-01 17:30N 43°35' W 005°41'0 0.0
2015-Aug-01 15:18N 43°35' W 005°41'0 0.0
2015-Aug-01 14:30N 43°35' W 005°41'0 0.0
2015-Aug-01 13:18N 43°35' W 005°41'0 0.0
2015-Aug-01 12:18N 43°35' W 005°41'0 0.0
2015-Aug-01 11:30N 43°35' W 005°41'0 0.0
2015-Aug-01 10:24N 43°35' W 005°41'0 0.0
2015-Aug-01 08:18N 43°35' W 005°41'0 0.0
2015-Aug-01 07:30N 43°35' W 005°41'0 0.0
2015-Aug-01 06:30N 43°35' W 005°41'0 0.0
2015-Aug-01 05:30N 43°35' W 005°41'0 0.0
2015-Aug-01 04:18N 43°35' W 005°41'0 0.0
2015-Aug-01 03:30N 43°35' W 005°41'0 0.0
2015-Aug-01 02:24N 43°35' W 005°41'0 0.0
2015-Aug-01 01:18N 43°35' W 005°41'0 0.0
2015-Aug-01 00:24N 43°35' W 005°41'0 0.0
2015-Jul-31 18:12N 43°35' W 005°41'0 0.0
2015-Jul-31 16:18N 43°35' W 005°41'0 0.0
2015-Jul-31 15:30N 43°35' W 005°41'0 0.0
2015-Jul-31 14:30N 43°35' W 005°41'0 0.0
2015-Jul-31 13:30N 43°35' W 005°41'0 0.0
2015-Jul-31 12:24N 43°35' W 005°41'0 0.0
2015-Jul-31 09:30N 43°35' W 005°41'0 0.0
2015-Jul-31 08:24N 43°35' W 005°41'0 0.0
2015-Jul-31 06:12N 43°35' W 005°41'0 0.0
2015-Jul-31 04:30N 43°35' W 005°41'0 0.0
2015-Jul-31 03:30N 43°35' W 005°41'0 0.0
2015-Jul-30 22:33N 43°35' W 005°41'5 5.4
2015-Jul-30 21:33N 43°39' W 005°37'1010.2
2015-Jul-30 20:33N 43°46' W 005°26'9 8.4
2015-Jul-30 19:29N 43°52' W 005°17'2 1.8
2015-Jul-30 18:29N 43°53' W 005°15'1 1.4
2015-Jul-30 17:33N 43°53' W 005°13'2 1.5
2015-Jul-30 16:30N 43°54' W 005°11'4 0.6
2015-Jul-30 09:12N 43°57' W 005°07'912.2
2015-Jul-30 08:30N 43°50' W 005°14'3 3.4
2015-Jul-30 07:32N 43°47' W 005°17'2 1.5
2015-Jul-30 06:31N 43°48' W 005°16'1 1.4
2015-Jul-30 05:33N 43°50' W 005°15'1 1.2
2015-Jul-30 04:33N 43°51' W 005°15'1 1.2
2015-Jul-30 03:33N 43°52' W 005°13'1 1.3
2015-Jul-30 02:33N 43°52' W 005°12'1 1.2
2015-Jul-30 01:33N 43°53' W 005°11'1 1.3
2015-Jul-30 00:32N 43°54' W 005°09'1 1.3
2015-Jul-29 23:31N 43°55' W 005°09'1 1.2
2015-Jul-29 22:32N 43°56' W 005°08'1 1.2
2015-Jul-29 21:25N 43°57' W 005°07'15 1.2
2015-Jul-29 08:33N 43°45' W 004°56'2 1.5
2015-Jul-29 07:29N 43°46' W 004°57'1 1.6
2015-Jul-29 06:33N 43°48' W 004°57'2 1.4
2015-Jul-29 05:27N 43°49' W 004°58'1 1.0
2015-Jul-29 04:32N 43°50' W 004°58'1 1.1
2015-Jul-29 03:29N 43°51' W 004°57'1 1.2
2015-Jul-29 02:33N 43°52' W 004°57'8 1.8
2015-Jul-28 22:08N 43°60' W 004°60'9 0.7
2015-Jul-28 09:23N 44°05' W 005°09'22 4.4
2015-Jul-28 04:23N 43°49' W 004°48'3 1.4
2015-Jul-28 02:20N 43°52' W 004°50'2 1.2
2015-Jul-28 01:06N 43°54' W 004°50'22 0.7
2015-Jul-26 19:33N 43°50' W 005°20'3 2.6
2015-Jul-26 18:31N 43°52' W 005°21'3 2.7
2015-Jul-26 17:30N 43°55' W 005°23'21 1.8
2015-Jul-26 06:09N 44°10' W 005°42'0 0.6
2015-Jul-26 05:33N 44°10' W 005°42'1 0.6
2015-Jul-26 04:31N 44°10' W 005°43'2 0.6
2015-Jul-26 01:29N 44°10' W 005°46'1 0.5
2015-Jul-26 00:14N 44°10' W 005°46'1 0.5
2015-Jul-25 22:29N 44°10' W 005°47'6 0.2
2015-Jul-24 07:33N 44°05' W 005°42'0 0.3
2015-Jul-24 06:29N 44°05' W 005°43'3 0.6
2015-Jul-24 01:08N 44°06' W 005°47'2 0.3
2015-Jul-23 19:25N 44°05' W 005°48'  

Dump ship's entire track history